createdAt,value
2022-08-03T00:02:20.026Z,37.93
2022-08-03T00:04:48.849Z,38.92
2022-08-03T00:07:17.340Z,37.88
2022-08-03T00:09:45.757Z,38.81
2022-08-03T00:12:14.581Z,38.82
2022-08-03T00:14:43.428Z,40.02
2022-08-03T00:17:12.596Z,40.91
2022-08-03T00:19:41.057Z,40.11
2022-08-03T00:22:09.460Z,38.98
2022-08-03T00:24:37.969Z,38.73
2022-08-03T00:27:06.348Z,38.65
2022-08-03T00:29:59.478Z,38.79
2022-08-03T00:32:24.143Z,39.12
2022-08-03T00:34:57.213Z,39.42
2022-08-03T00:37:41.228Z,38.89
2022-08-03T00:40:14.962Z,38.71
2022-08-03T00:42:48.682Z,38.51
2022-08-03T00:45:21.974Z,38.68
2022-08-03T00:47:50.984Z,39.00
2022-08-03T00:50:22.823Z,39.05
2022-08-03T00:52:56.225Z,39.19
2022-08-03T00:55:25.776Z,38.99
2022-08-03T00:57:55.259Z,38.89
2022-08-03T01:00:26.016Z,39.66
2022-08-03T01:02:54.811Z,40.96
2022-08-03T01:05:25.198Z,41.90
2022-08-03T01:08:22.760Z,42.01
2022-08-03T01:11:19.149Z,41.22
2022-08-03T01:14:18.319Z,41.78
2022-08-03T01:16:59.288Z,41.77
2022-08-03T01:19:51.834Z,41.84
2022-08-03T01:22:59.153Z,43.00
2022-08-03T01:26:12.650Z,41.15
2022-08-03T01:28:50.221Z,41.81
2022-08-03T01:31:23.812Z,41.58
2022-08-03T01:33:59.200Z,42.38
2022-08-03T01:36:33.807Z,41.99
2022-08-03T01:39:09.247Z,42.48
2022-08-03T01:41:44.580Z,42.01
2022-08-03T01:44:29.177Z,42.42
2022-08-03T01:47:01.185Z,42.15
2022-08-03T01:49:33.563Z,43.37
2022-08-03T01:52:05.565Z,42.96
2022-08-03T01:54:44.111Z,42.81
2022-08-03T01:57:14.092Z,43.39
2022-08-03T01:59:44.669Z,43.53
2022-08-03T02:02:32.200Z,43.25
2022-08-03T02:05:05.930Z,42.97
2022-08-03T02:07:42.120Z,43.51
2022-08-03T02:10:13.435Z,43.28
2022-08-03T02:12:46.100Z,43.74
2022-08-03T02:15:16.728Z,43.41
2022-08-03T02:17:48.520Z,43.41
2022-08-03T02:20:17.604Z,42.31
2022-08-03T02:22:54.575Z,42.63
2022-08-03T02:25:57.277Z,42.26
2022-08-03T02:28:35.204Z,43.16
2022-08-03T02:31:07.479Z,42.91
2022-08-03T02:33:43.206Z,43.29
2022-08-03T02:36:14.486Z,42.86
2022-08-03T02:38:46.450Z,42.30
2022-08-03T02:41:23.915Z,41.99
2022-08-03T02:44:05.584Z,42.53
2022-08-03T02:46:41.438Z,43.18
2022-08-03T02:49:40.551Z,43.44
2022-08-03T02:52:02.828Z,43.02
2022-08-03T02:54:33.023Z,43.26
2022-08-03T02:57:02.403Z,43.93
2022-08-03T02:59:32.190Z,42.61
2022-08-03T03:02:02.724Z,43.36
2022-08-03T03:04:32.204Z,42.25
2022-08-03T03:07:04.451Z,42.47
2022-08-03T03:09:40.471Z,42.71
2022-08-03T03:12:12.616Z,42.44
2022-08-03T03:14:41.160Z,43.62
2022-08-03T03:17:11.432Z,42.51
2022-08-03T03:19:41.385Z,42.76
2022-08-03T03:22:10.703Z,42.30
2022-08-03T03:24:41.465Z,42.38
2022-08-03T03:27:10.221Z,41.71
2022-08-03T03:29:45.599Z,42.73
2022-08-03T03:32:14.474Z,42.33
2022-08-03T03:34:44.226Z,41.87
2022-08-03T03:37:12.988Z,42.31
2022-08-03T03:39:41.498Z,42.10
2022-08-03T03:42:10.143Z,41.97
2022-08-03T03:44:38.711Z,41.68
2022-08-03T03:47:07.308Z,42.39
2022-08-03T03:49:36.422Z,41.98
2022-08-03T03:52:05.287Z,42.01
2022-08-03T03:54:43.499Z,42.76
2022-08-03T03:57:20.101Z,41.94
2022-08-03T03:59:49.063Z,42.12
2022-08-03T04:02:18.042Z,42.45
2022-08-03T04:05:25.141Z,42.66
2022-08-03T04:08:18.299Z,43.80
2022-08-03T04:11:00.445Z,42.96
2022-08-03T04:14:01.768Z,43.57
2022-08-03T04:16:34.449Z,44.06
2022-08-03T04:19:08.143Z,43.86
2022-08-03T04:21:43.446Z,43.29
2022-08-03T04:24:14.864Z,43.68
2022-08-03T04:26:49.626Z,44.28
2022-08-03T04:29:22.354Z,44.67
2022-08-03T04:31:54.640Z,44.83
2022-08-03T04:34:23.348Z,43.83
2022-08-03T04:36:57.947Z,42.42
2022-08-03T04:39:29.381Z,42.06
2022-08-03T04:42:17.059Z,41.67
2022-08-03T04:44:46.815Z,41.09
2022-08-03T04:47:16.343Z,40.72
2022-08-03T04:49:45.581Z,40.54
2022-08-03T04:52:15.151Z,40.30
2022-08-03T04:54:48.809Z,40.11
2022-08-03T04:57:22.527Z,40.05
2022-08-03T05:00:01.265Z,40.04
2022-08-03T05:02:32.038Z,39.06
2022-08-03T05:05:00.678Z,38.49
2022-08-03T05:07:35.508Z,38.65
2022-08-03T05:10:15.712Z,37.24
2022-08-03T05:12:48.119Z,37.40
2022-08-03T05:15:16.641Z,37.93
2022-08-03T05:17:45.145Z,37.45
2022-08-03T05:20:13.612Z,36.81
2022-08-03T05:22:47.333Z,36.55
2022-08-03T05:25:19.211Z,36.26
2022-08-03T05:27:49.427Z,36.24
2022-08-03T05:30:29.866Z,36.10
2022-08-03T05:33:03.451Z,36.22
2022-08-03T05:36:00.766Z,36.19
2022-08-03T05:38:28.798Z,36.35
2022-08-03T05:41:22.814Z,35.92
2022-08-03T05:43:55.971Z,36.85
2022-08-03T05:46:24.906Z,37.73
2022-08-03T05:48:53.544Z,38.08
2022-08-03T05:51:22.196Z,37.97
2022-08-03T05:53:50.737Z,38.19
2022-08-03T05:56:24.159Z,38.54
2022-08-03T05:58:53.293Z,39.08
2022-08-03T06:01:22.354Z,39.30
2022-08-03T06:03:52.132Z,38.98
2022-08-03T06:06:20.604Z,38.96
2022-08-03T06:08:49.241Z,38.82
2022-08-03T06:11:17.764Z,38.96
2022-08-03T06:13:46.312Z,39.48
2022-08-03T06:16:14.716Z,39.53
2022-08-03T06:18:44.215Z,39.40
2022-08-03T06:21:15.700Z,39.49
2022-08-03T06:23:54.726Z,39.71
2022-08-03T06:26:25.505Z,40.30
2022-08-03T06:28:54.950Z,40.30
2022-08-03T06:31:33.395Z,40.08
2022-08-03T06:34:33.190Z,39.48
2022-08-03T06:36:53.151Z,38.83
2022-08-03T06:39:23.676Z,39.14
2022-08-03T06:41:53.051Z,39.35
2022-08-03T06:44:21.685Z,39.16
2022-08-03T06:46:51.127Z,39.08
2022-08-03T06:49:19.664Z,38.54
2022-08-03T06:52:03.529Z,38.79
2022-08-03T06:54:36.253Z,39.17
2022-08-03T06:57:05.920Z,38.83
2022-08-03T07:00:09.555Z,38.83
2022-08-03T07:02:24.056Z,39.16
2022-08-03T07:04:56.667Z,38.54
2022-08-03T07:07:25.138Z,40.27
2022-08-03T07:09:57.182Z,38.72
2022-08-03T07:12:28.604Z,38.54
2022-08-03T07:15:01.365Z,38.28
2022-08-03T07:17:34.670Z,39.51
2022-08-03T07:20:08.263Z,39.01
2022-08-03T07:22:37.746Z,40.12
2022-08-03T07:25:07.584Z,39.19
2022-08-03T07:27:37.039Z,38.56
2022-08-03T07:30:08.028Z,38.27
2022-08-03T07:32:36.670Z,40.36
2022-08-03T07:35:24.759Z,40.60
2022-08-03T07:37:55.062Z,41.75
2022-08-03T07:40:23.974Z,40.79
2022-08-03T07:42:59.943Z,39.89
2022-08-03T07:45:30.148Z,39.04
2022-08-03T07:47:58.659Z,38.54
2022-08-03T07:50:27.199Z,37.91
2022-08-03T07:52:57.888Z,37.71
2022-08-03T07:55:28.615Z,37.56
2022-08-03T07:58:02.270Z,37.52
2022-08-03T08:00:31.427Z,37.31
2022-08-03T08:03:00.017Z,36.86
2022-08-03T08:05:29.421Z,37.33
2022-08-03T08:07:58.025Z,37.19
2022-08-03T08:10:28.790Z,38.42
2022-08-03T08:12:57.682Z,38.06
2022-08-03T08:15:26.203Z,37.95
2022-08-03T08:17:57.129Z,37.54
2022-08-03T08:20:30.732Z,36.86
2022-08-03T08:23:19.954Z,36.24
2022-08-03T08:25:58.111Z,37.17
2022-08-03T08:28:32.855Z,36.48
2022-08-03T08:31:02.281Z,36.50
2022-08-03T08:34:05.073Z,36.74
2022-08-03T08:36:19.606Z,36.96
2022-08-03T08:38:48.338Z,37.73
2022-08-03T08:41:17.286Z,36.97
2022-08-03T08:43:45.906Z,36.63
2022-08-03T08:46:22.744Z,35.77
2022-08-03T08:48:54.706Z,36.51
2022-08-03T08:51:59.081Z,36.08
2022-08-03T08:54:20.696Z,35.24
2022-08-03T08:56:55.937Z,35.54
2022-08-03T08:59:25.364Z,34.78
2022-08-03T09:01:57.980Z,35.11
2022-08-03T09:04:29.075Z,34.61
2022-08-03T09:07:18.779Z,35.45
2022-08-03T09:10:00.343Z,34.80
2022-08-03T09:12:43.009Z,33.97
2022-08-03T09:15:19.280Z,33.93
2022-08-03T09:17:51.258Z,33.70
2022-08-03T09:20:21.758Z,32.80
2022-08-03T09:23:24.934Z,33.79
2022-08-03T09:26:00.037Z,32.73
2022-08-03T09:29:01.143Z,31.73
2022-08-03T09:31:38.622Z,32.24
2022-08-03T09:34:09.112Z,32.39
2022-08-03T09:36:48.488Z,31.77
2022-08-03T09:39:28.674Z,31.29
2022-08-03T09:42:23.797Z,32.40
2022-08-03T09:44:53.158Z,32.13
2022-08-03T09:47:29.868Z,31.48
2022-08-03T09:50:04.606Z,31.32
2022-08-03T09:52:52.154Z,32.09
2022-08-03T09:56:33.080Z,32.71
2022-08-03T09:58:12.684Z,33.26
2022-08-03T10:01:04.584Z,31.88
2022-08-03T10:04:03.219Z,31.48
2022-08-03T10:06:28.792Z,31.01
2022-08-03T10:09:10.208Z,30.99
2022-08-03T10:11:42.125Z,31.17
2022-08-03T10:14:18.823Z,31.06
2022-08-03T10:16:49.685Z,30.68
2022-08-03T10:19:18.213Z,29.86
2022-08-03T10:21:51.217Z,29.99
2022-08-03T10:24:24.498Z,30.46
2022-08-03T10:27:00.730Z,30.80
2022-08-03T10:29:32.892Z,29.37
2022-08-03T10:32:05.394Z,29.29
2022-08-03T10:34:44.551Z,28.88
2022-08-03T10:37:17.530Z,29.89
2022-08-03T10:39:55.689Z,29.07
2022-08-03T10:42:27.132Z,30.62
2022-08-03T10:45:02.735Z,30.79
2022-08-03T10:47:32.673Z,30.61
2022-08-03T10:50:02.040Z,29.73
2022-08-03T10:52:33.604Z,29.17
2022-08-03T10:55:47.845Z,28.45
2022-08-03T10:58:37.224Z,28.50
2022-08-03T11:01:10.581Z,28.40
2022-08-03T11:03:54.332Z,29.01
2022-08-03T11:06:25.535Z,28.43
2022-08-03T11:09:23.226Z,29.23
2022-08-03T11:11:51.874Z,29.27
2022-08-03T11:14:21.636Z,28.92
2022-08-03T11:17:06.043Z,28.25
2022-08-03T11:19:57.596Z,28.86
2022-08-03T11:22:54.455Z,28.65
2022-08-03T11:25:53.505Z,29.59
2022-08-03T11:28:26.269Z,30.65
2022-08-03T11:30:56.410Z,29.44
2022-08-03T11:33:31.656Z,29.51
2022-08-03T11:36:02.252Z,29.00
2022-08-03T11:38:30.836Z,29.08
2022-08-03T11:41:02.544Z,29.72
2022-08-03T11:43:35.135Z,30.65
2022-08-03T11:46:08.669Z,30.18
2022-08-03T11:48:45.272Z,29.42
2022-08-03T11:51:30.064Z,28.94
2022-08-03T11:53:59.908Z,28.58
2022-08-03T11:56:29.808Z,28.56
2022-08-03T11:59:19.989Z,28.27
2022-08-03T12:01:47.418Z,28.43
2022-08-03T12:04:16.265Z,29.11
2022-08-03T12:07:01.245Z,29.18
2022-08-03T12:09:29.904Z,28.60
2022-08-03T12:12:00.966Z,28.41
2022-08-03T12:14:48.375Z,27.82
2022-08-03T12:17:19.376Z,28.07
2022-08-03T12:19:48.211Z,28.23
2022-08-03T12:22:17.159Z,28.86
2022-08-03T12:24:47.580Z,28.94
2022-08-03T12:27:24.276Z,28.35
2022-08-03T12:29:57.242Z,28.48
2022-08-03T12:32:31.298Z,27.80
2022-08-03T12:35:01.660Z,28.55
2022-08-03T12:37:31.267Z,29.41
2022-08-03T12:40:08.013Z,29.63
2022-08-03T12:42:39.932Z,29.44
2022-08-03T12:45:19.511Z,29.11
2022-08-03T12:47:56.837Z,29.19
2022-08-03T12:50:28.203Z,28.31
2022-08-03T12:52:58.372Z,27.85
2022-08-03T12:55:57.244Z,27.35
2022-08-03T12:58:34.917Z,27.63
2022-08-03T13:01:09.746Z,28.11
2022-08-03T13:03:42.115Z,28.48
2022-08-03T13:06:16.805Z,27.07
2022-08-03T13:08:48.144Z,27.63
2022-08-03T13:11:55.644Z,27.01
2022-08-03T13:14:13.541Z,27.67
2022-08-03T13:16:49.297Z,27.71
2022-08-03T13:19:18.013Z,28.23
2022-08-03T13:21:53.675Z,28.64
2022-08-03T13:24:33.664Z,27.60
2022-08-03T13:27:22.543Z,28.78
2022-08-03T13:29:52.882Z,28.40
2022-08-03T13:32:21.896Z,28.18
2022-08-03T13:34:52.396Z,27.97
2022-08-03T13:37:21.576Z,27.49
2022-08-03T13:39:59.692Z,27.21
2022-08-03T13:42:32.472Z,27.65
2022-08-03T13:45:02.128Z,28.19
2022-08-03T13:47:30.777Z,27.63
2022-08-03T13:50:01.468Z,27.21
2022-08-03T13:52:33.203Z,28.10
2022-08-03T13:55:03.623Z,27.98
2022-08-03T13:58:04.085Z,27.11
2022-08-03T14:00:28.232Z,26.65
2022-08-03T14:03:05.053Z,26.83
2022-08-03T14:05:35.990Z,26.36
2022-08-03T14:08:06.672Z,26.14
2022-08-03T14:10:37.743Z,27.84
2022-08-03T14:13:06.835Z,26.90
2022-08-03T14:15:37.571Z,26.80
2022-08-03T14:18:15.808Z,26.52
2022-08-03T14:20:49.031Z,26.07
2022-08-03T14:23:20.064Z,25.65
2022-08-03T14:25:51.532Z,26.30
2022-08-03T14:28:23.820Z,25.74
2022-08-03T14:30:53.780Z,26.14
2022-08-03T14:33:23.494Z,26.06
2022-08-03T14:35:52.194Z,25.94
2022-08-03T14:38:21.304Z,26.45
2022-08-03T14:40:50.434Z,26.12
2022-08-03T14:43:21.093Z,24.71
2022-08-03T14:45:53.854Z,25.02
2022-08-03T14:50:10.551Z,26.07
2022-08-03T14:51:13.449Z,26.19
2022-08-03T14:53:42.148Z,25.65
2022-08-03T14:56:11.036Z,25.28
2022-08-03T14:58:39.785Z,25.35
2022-08-03T15:02:05.354Z,25.64
2022-08-03T15:03:57.099Z,25.50
2022-08-03T15:06:25.583Z,25.73
2022-08-03T15:11:43.007Z,25.60
2022-08-03T15:14:13.468Z,25.04
2022-08-03T15:16:43.292Z,25.08
2022-08-03T15:20:01.029Z,24.52
2022-08-03T15:22:00.953Z,24.19
2022-08-03T15:24:29.855Z,24.24
2022-08-03T15:26:58.332Z,24.85
2022-08-03T15:30:07.237Z,24.97
2022-08-03T15:32:15.524Z,24.64
2022-08-03T15:34:50.352Z,24.56
2022-08-03T15:37:20.742Z,24.49
2022-08-03T15:40:00.151Z,25.53
2022-08-03T15:42:30.998Z,25.38
2022-08-03T15:44:59.832Z,25.11
2022-08-03T15:47:28.529Z,24.88
2022-08-03T15:49:57.319Z,25.04
2022-08-03T15:52:26.043Z,25.54
2022-08-03T15:54:54.629Z,25.43
2022-08-03T15:57:23.869Z,25.01
2022-08-03T15:59:52.660Z,24.71
2022-08-03T16:02:21.687Z,24.91
2022-08-03T16:04:50.272Z,24.69
2022-08-03T16:07:38.696Z,24.78
2022-08-03T16:10:07.779Z,25.22
2022-08-03T16:12:37.725Z,24.92
2022-08-03T16:15:07.162Z,25.05
2022-08-03T16:17:35.800Z,25.09
2022-08-03T16:20:10.841Z,25.03
2022-08-03T16:22:55.059Z,25.23
2022-08-03T16:25:24.741Z,24.63
2022-08-03T16:28:07.214Z,24.29
2022-08-03T16:30:36.079Z,24.84
2022-08-03T16:33:04.791Z,24.87
2022-08-03T16:35:33.456Z,25.69
2022-08-03T16:38:06.503Z,25.03
2022-08-03T16:40:38.142Z,25.08
2022-08-03T16:43:18.394Z,24.79
2022-08-03T16:45:47.931Z,25.08
2022-08-03T16:48:17.666Z,24.33
2022-08-03T16:50:47.118Z,25.04
2022-08-03T16:53:17.235Z,24.14
2022-08-03T16:56:05.574Z,24.28
2022-08-03T16:58:42.394Z,24.53
2022-08-03T17:01:21.500Z,23.92
2022-08-03T17:04:01.698Z,23.64
2022-08-03T17:06:44.750Z,24.33
2022-08-03T17:09:20.764Z,23.65
2022-08-03T17:11:50.992Z,24.16
2022-08-03T17:14:22.891Z,24.22
2022-08-03T17:17:01.026Z,24.53
2022-08-03T17:19:32.584Z,24.35
2022-08-03T17:22:11.010Z,24.64
2022-08-03T17:24:45.008Z,24.16
2022-08-03T17:28:48.490Z,23.86
2022-08-03T17:30:12.135Z,24.48
2022-08-03T17:32:57.154Z,24.31
2022-08-03T17:35:34.560Z,23.97
2022-08-03T17:38:10.488Z,24.21
2022-08-03T17:40:50.155Z,24.15
2022-08-03T17:44:13.227Z,24.54
2022-08-03T17:46:10.954Z,25.05
2022-08-03T17:48:41.405Z,24.74
2022-08-03T17:51:20.290Z,24.70
2022-08-03T17:54:18.143Z,25.22
2022-08-03T17:57:22.377Z,24.88
2022-08-03T18:00:32.354Z,25.13
2022-08-03T18:03:15.365Z,24.66
2022-08-03T18:06:11.406Z,25.19
2022-08-03T18:08:43.552Z,24.57
2022-08-03T18:11:16.719Z,24.96
2022-08-03T18:13:53.510Z,25.47
2022-08-03T18:16:36.237Z,25.96
2022-08-03T18:19:09.293Z,25.98
2022-08-03T18:22:02.844Z,26.11
2022-08-03T18:24:28.649Z,26.04
2022-08-03T18:27:00.091Z,25.47
2022-08-03T18:29:31.178Z,25.67
2022-08-03T18:32:03.062Z,25.63
2022-08-03T18:34:34.471Z,25.68
2022-08-03T18:37:07.280Z,25.99
2022-08-03T18:39:39.001Z,25.25
2022-08-03T18:42:20.054Z,25.85
2022-08-03T18:44:56.396Z,25.41
2022-08-03T18:47:56.887Z,25.95
2022-08-03T18:50:37.034Z,25.98
2022-08-03T18:53:19.767Z,25.95
2022-08-03T18:56:03.573Z,26.00
2022-08-03T18:58:52.368Z,26.22
2022-08-03T19:02:00.769Z,25.97
2022-08-03T19:04:35.944Z,26.10
2022-08-03T19:07:08.496Z,27.00
2022-08-03T19:09:54.543Z,27.12
2022-08-03T19:12:39.876Z,27.38
2022-08-03T19:18:02.557Z,28.77
2022-08-03T19:20:34.885Z,28.63
2022-08-03T19:23:06.754Z,28.41
2022-08-03T19:25:39.313Z,28.06
2022-08-03T19:28:09.138Z,27.89
2022-08-03T19:30:40.081Z,27.86
2022-08-03T19:33:14.231Z,27.75
2022-08-03T19:38:33.660Z,27.85
2022-08-03T19:41:03.766Z,28.18
2022-08-03T19:43:52.959Z,29.13
2022-08-03T19:46:27.648Z,28.98
2022-08-03T19:49:15.196Z,28.90
2022-08-03T19:52:01.561Z,29.37
2022-08-03T19:54:53.150Z,28.87
2022-08-03T19:57:25.534Z,29.22
2022-08-03T19:59:56.592Z,29.63
2022-08-03T20:02:26.873Z,30.05
2022-08-03T20:04:57.945Z,30.29
2022-08-03T20:07:31.894Z,30.75
2022-08-03T20:10:04.541Z,31.15
2022-08-03T20:12:39.131Z,31.25
2022-08-03T20:15:09.106Z,30.77
2022-08-03T20:17:56.821Z,31.37
2022-08-03T20:20:33.112Z,32.49
2022-08-03T20:23:06.909Z,31.65
2022-08-03T20:25:57.123Z,32.20
2022-08-03T20:28:50.612Z,32.06
2022-08-03T20:31:25.248Z,32.34
2022-08-03T20:34:06.836Z,32.65
2022-08-03T20:36:38.224Z,33.25
2022-08-03T20:39:07.804Z,33.95
2022-08-03T20:41:37.440Z,33.57
2022-08-03T20:44:06.345Z,33.69
2022-08-03T20:46:50.225Z,33.16
2022-08-03T20:49:23.636Z,33.33
2022-08-03T20:51:53.646Z,33.26
2022-08-03T20:54:29.902Z,33.27
2022-08-03T20:57:04.113Z,33.46
2022-08-03T20:59:50.534Z,33.30
2022-08-03T21:02:30.250Z,33.34
2022-08-03T21:05:02.861Z,33.14
2022-08-03T21:08:05.853Z,33.11
2022-08-03T21:10:30.922Z,32.63
2022-08-03T21:13:01.803Z,28.64
2022-08-03T21:13:09.879Z,27.93
2022-08-03T21:13:23.383Z,32.78
2022-08-03T21:16:02.514Z,33.39
2022-08-03T21:18:51.417Z,33.13
2022-08-03T21:21:22.763Z,33.73
2022-08-03T21:23:53.426Z,33.50
2022-08-03T21:26:24.671Z,33.34
2022-08-03T21:28:55.277Z,34.16
2022-08-03T21:31:26.550Z,34.09
2022-08-03T21:34:05.374Z,33.72
2022-08-03T21:36:36.272Z,34.15
2022-08-03T21:39:10.434Z,33.36
2022-08-03T21:41:40.229Z,33.70
2022-08-03T21:44:09.737Z,33.81
2022-08-03T21:46:42.270Z,33.58
2022-08-03T21:50:05.454Z,33.97
2022-08-03T21:52:05.226Z,34.42
2022-08-03T21:54:37.177Z,34.21
2022-08-03T21:57:12.954Z,34.19
2022-08-03T21:59:47.776Z,33.99
2022-08-03T22:02:24.294Z,34.18
2022-08-03T22:04:56.443Z,34.04
2022-08-03T22:07:27.975Z,34.03
2022-08-03T22:09:58.572Z,33.10
2022-08-03T22:12:29.335Z,33.08
2022-08-03T22:15:02.127Z,33.16
2022-08-03T22:17:53.876Z,33.00
2022-08-03T22:20:22.007Z,33.02
2022-08-03T22:22:56.597Z,33.37
2022-08-03T22:25:29.172Z,33.77
2022-08-03T22:28:05.665Z,33.88
2022-08-03T22:30:34.600Z,34.47
2022-08-03T22:33:05.391Z,34.51
2022-08-03T22:35:47.199Z,34.08
2022-08-03T22:38:18.084Z,34.24
2022-08-03T22:40:49.780Z,33.97
2022-08-03T22:43:23.223Z,34.24
2022-08-03T22:46:09.220Z,34.41
2022-08-03T22:48:41.338Z,34.52
2022-08-03T22:51:10.457Z,34.64
2022-08-03T22:53:39.892Z,34.11
2022-08-03T22:56:08.756Z,34.16
2022-08-03T22:58:37.267Z,34.99
2022-08-03T23:01:11.461Z,34.29
2022-08-03T23:04:00.383Z,34.55
2022-08-03T23:06:37.719Z,34.76
2022-08-03T23:09:11.847Z,34.64
2022-08-03T23:11:45.437Z,34.38
2022-08-03T23:14:18.318Z,34.36
2022-08-03T23:16:47.818Z,34.70
2022-08-03T23:19:25.631Z,35.14
2022-08-03T23:22:02.673Z,34.90
2022-08-03T23:24:36.185Z,34.93
2022-08-03T23:27:06.751Z,34.92
2022-08-03T23:29:39.579Z,35.03
2022-08-03T23:32:10.394Z,34.83
2022-08-03T23:34:58.583Z,34.56
2022-08-03T23:37:28.771Z,34.54
2022-08-03T23:39:57.298Z,34.60
2022-08-03T23:42:26.256Z,34.64
2022-08-03T23:44:59.289Z,34.29
2022-08-03T23:47:46.934Z,34.41
2022-08-03T23:50:17.232Z,34.12
2022-08-03T23:53:09.717Z,34.30
2022-08-03T23:56:00.960Z,34.23
2022-08-03T23:58:32.387Z,34.18
